Time;durP1;ratioP1;P1;durP2;ratioP2;P2;SDS_P1;SDS_P2;PMS_P1;PMS_P2;Temp;Humidity;BMP_temperature;BMP_pressure;BME280_temperature;BME280_humidity;BME280_pressure;Samples;Min_cycle;Max_cycle;Signal;HPM_P1;HPM_P2
2022/11/19 00:00:49;;;;;;;10.23;8.63;;;-1.20;99.90;-2.20;99912;;;;560684;252;24095;-79
2022/11/19 00:03:16;;;;;;;10.03;9.03;;;-1.10;99.90;-2.20;99919;;;;569132;252;24123;-80
2022/11/19 00:05:46;;;;;;;11.97;9.33;;;-1.10;99.90;-2.20;99907;;;;569109;251;24098;-78
2022/11/19 00:08:17;;;;;;;12.27;9.60;;;-1.10;99.90;-2.20;99920;;;;560498;252;24158;-79
2022/11/19 00:10:45;;;;;;;10.33;9.23;;;-1.10;99.90;-2.20;99916;;;;569352;252;24146;-79
2022/11/19 00:13:16;;;;;;;10.93;8.87;;;-1.10;99.90;-2.20;99919;;;;569133;248;24110;-78
2022/11/19 00:15:41;;;;;;;12.97;9.47;;;-1.10;99.90;-2.20;99908;;;;568967;252;24114;-79
2022/11/19 00:18:09;;;;;;;9.93;8.93;;;-1.10;99.90;-2.20;99904;;;;569259;252;24098;-80
2022/11/19 00:20:37;;;;;;;9.53;8.53;;;-1.10;99.90;-2.20;99910;;;;569251;250;24152;-80
2022/11/19 00:23:05;;;;;;;9.63;8.70;;;-1.10;99.90;-2.20;99901;;;;570552;251;24141;-79
2022/11/19 00:25:34;;;;;;;8.93;8.03;;;-1.10;99.90;-2.20;99898;;;;569956;252;24086;-78
2022/11/19 00:28:02;;;;;;;8.67;7.33;;;-1.10;99.90;-2.20;99891;;;;565586;252;24124;-78
2022/11/19 00:30:29;;;;;;;7.77;7.10;;;-1.10;99.90;-2.20;99891;;;;569682;252;24120;-79
2022/11/19 00:32:57;;;;;;;6.90;6.27;;;-1.10;99.90;-2.20;99893;;;;569481;252;24167;-78
2022/11/19 00:35:26;;;;;;;6.80;6.20;;;-1.20;99.90;-2.20;99885;;;;569503;252;24159;-80
2022/11/19 00:37:54;;;;;;;7.47;6.77;;;-1.20;99.90;-2.20;99870;;;;569352;252;24161;-79
2022/11/19 00:40:22;;;;;;;14.13;7.20;;;-1.20;99.90;-2.20;99885;;;;569312;252;24096;-83
2022/11/19 00:45:36;;;;;;;8.00;7.20;;;-1.20;99.90;-2.30;99884;;;;563996;254;24086;-77
2022/11/19 00:48:04;;;;;;;8.23;6.90;;;-1.20;99.90;-2.30;99889;;;;577726;247;24077;-78
2022/11/19 00:50:33;;;;;;;7.77;7.00;;;-1.20;99.90;-2.30;99891;;;;560429;252;24185;-77
2022/11/19 00:53:03;;;;;;;7.97;7.17;;;-1.20;99.90;-2.30;99895;;;;559123;256;24159;-78
2022/11/19 00:55:29;;;;;;;9.67;7.97;;;-1.20;99.90;-2.30;99884;;;;559389;256;24197;-78
2022/11/19 00:57:57;;;;;;;8.20;7.23;;;-1.20;99.90;-2.30;99883;;;;558456;257;24143;-78
2022/11/19 01:00:25;;;;;;;8.20;7.40;;;-1.20;99.90;-2.30;99881;;;;547193;257;24136;-79
2022/11/19 01:02:52;;;;;;;8.20;7.40;;;-1.20;99.90;-2.30;99883;;;;547124;255;24152;-79
2022/11/19 01:05:20;;;;;;;7.97;7.17;;;-1.30;99.90;-2.30;99880;;;;569416;251;24093;-80
2022/11/19 01:07:49;;;;;;;6.93;6.33;;;-1.30;99.90;-2.30;99882;;;;569420;252;24143;-79
2022/11/19 01:10:17;;;;;;;7.47;6.77;;;-1.30;99.90;-2.30;99882;;;;569207;251;24119;-79
2022/11/19 01:15:32;;;;;;;10.80;7.53;;;-1.30;99.90;-2.30;99879;;;;560301;252;24096;-79
2022/11/19 01:18:00;;;;;;;7.70;6.90;;;-1.30;99.90;-2.30;99880;;;;560545;252;24151;-79
2022/11/19 01:20:32;;;;;;;8.97;8.00;;;-1.30;99.90;-2.30;99877;;;;564173;252;43782;-78
2022/11/19 01:22:57;;;;;;;7.53;6.77;;;-1.20;99.90;-2.30;99875;;;;564046;251;24110;-79
2022/11/19 01:25:25;;;;;;;9.27;7.43;;;-1.20;99.90;-2.30;99865;;;;568864;252;24103;-79
2022/11/19 01:27:53;;;;;;;7.60;6.80;;;-1.20;99.90;-2.30;99868;;;;568857;252;24103;-79
2022/11/19 01:30:21;;;;;;;7.47;6.77;;;-1.20;99.90;-2.30;99865;;;;568931;252;24180;-80
2022/11/19 01:32:48;;;;;;;5.77;5.10;;;-1.20;99.90;-2.20;99869;;;;569288;251;24145;-79
2022/11/19 01:35:16;;;;;;;6.60;6.00;;;-1.20;99.90;-2.20;99869;;;;570283;251;24185;-81
2022/11/19 01:37:44;;;;;;;6.00;5.50;;;-1.20;99.90;-2.20;99868;;;;570463;252;24128;-81
2022/11/19 01:40:12;;;;;;;5.90;5.40;;;-1.10;99.90;-2.20;99855;;;;565883;252;24171;-80
2022/11/19 01:42:49;;;;;;;5.93;5.33;;;-1.10;99.90;-2.20;99859;;;;565797;252;24120;-79
2022/11/19 01:45:35;;;;;;;5.77;5.27;;;-1.10;99.90;-2.20;99856;;;;561484;252;24127;-79
2022/11/19 01:48:20;;;;;;;5.30;4.90;;;-1.10;99.90;-2.20;99861;;;;561727;252;24168;-79
2022/11/19 01:50:57;;;;;;;5.40;4.90;;;-1.20;99.90;-2.30;99853;;;;565546;252;24096;-79
2022/11/19 01:53:25;;;;;;;5.83;5.23;;;-1.20;99.90;-2.20;99859;;;;560866;252;24284;-79
2022/11/19 01:55:53;;;;;;;5.63;5.13;;;-1.20;99.90;-2.30;99848;;;;564861;252;24203;-78
2022/11/19 01:58:21;;;;;;;6.00;5.50;;;-1.20;99.90;-2.30;99846;;;;560560;252;24144;-78
2022/11/19 02:00:49;;;;;;;6.57;5.97;;;-1.20;99.90;-2.30;99852;;;;569254;252;24117;-78
2022/11/19 02:03:21;;;;;;;6.87;6.17;;;-1.20;99.90;-2.30;99851;;;;560516;252;24144;-78
2022/11/19 02:05:46;;;;;;;8.27;6.40;;;-1.20;99.90;-2.30;99841;;;;560378;252;24134;-78
2022/11/19 02:08:39;;;;;;;6.70;6.00;;;-1.20;99.90;-2.30;99831;;;;560202;252;24177;-78
2022/11/19 02:11:10;;;;;;;6.40;5.53;;;-1.20;99.90;-2.30;99838;;;;569099;250;24113;-79
2022/11/19 02:13:41;;;;;;;6.63;6.03;;;-1.30;99.90;-2.30;99832;;;;564483;252;24168;-79
2022/11/19 02:16:52;;;;;;;5.70;5.17;;;-1.30;99.90;-2.30;99825;;;;560495;252;24121;-80
2022/11/19 02:20:06;;;;;;;5.47;4.97;;;-1.30;99.90;-2.30;99839;;;;560361;252;24139;-79
2022/11/19 02:22:43;;;;;;;6.87;6.17;;;-1.30;99.90;-2.30;99824;;;;565629;252;24176;-82
2022/11/19 02:25:34;;;;;;;7.83;7.03;;;-1.30;99.90;-2.30;99826;;;;564714;252;24173;-82
2022/11/19 02:28:33;;;;;;;8.47;7.50;;;-1.30;99.90;-2.30;99824;;;;564366;252;24135;-81
2022/11/19 02:31:09;;;;;;;9.93;7.77;;;-1.30;99.90;-2.30;99825;;;;565292;251;24158;-80
2022/11/19 02:33:46;;;;;;;9.90;8.67;;;-1.30;99.90;-2.30;99828;;;;565387;252;24126;-81
2022/11/19 02:36:32;;;;;;;11.27;9.70;;;-1.30;99.90;-2.40;99824;;;;565546;252;24112;-81
2022/11/19 02:39:06;;;;;;;12.10;10.90;;;-1.30;99.90;-2.30;99822;;;;552917;256;24199;-80
2022/11/19 02:41:46;;;;;;;13.67;12.13;;;-1.30;99.90;-2.30;99819;;;;562951;251;24178;-79
2022/11/19 02:47:21;;;;;;;15.20;13.60;;;-1.30;99.90;-2.30;99819;;;;569796;251;24147;-79
2022/11/19 02:49:49;;;;;;;15.20;13.17;;;-1.30;99.90;-2.40;99822;;;;569826;250;24139;-79
2022/11/19 02:52:17;;;;;;;15.33;13.23;;;-1.30;99.90;-2.40;99811;;;;559538;256;24135;-79
2022/11/19 02:54:44;;;;;;;12.50;11.00;;;-1.30;99.90;-2.40;99825;;;;569287;252;24174;-79
2022/11/19 02:57:16;;;;;;;13.50;9.90;;;-1.30;99.90;-2.40;99818;;;;569396;252;24131;-78
2022/11/19 03:05:31;;;;;;;14.70;11.73;;;-1.50;99.90;-2.50;99803;;;;559380;252;24129;-79
2022/11/19 03:07:59;;;;;;;15.60;12.17;;;-1.50;99.90;-2.60;99799;;;;559159;256;24162;-79
2022/11/19 03:10:27;;;;;;;16.70;12.27;;;-1.50;99.90;-2.60;99800;;;;557207;256;24171;-79
2022/11/19 03:16:40;;;;;;;18.63;12.33;;;-1.50;99.90;-2.60;99804;;;;569177;248;24108;-79
2022/11/19 03:18:39;;;;;;;13.37;11.97;;;-1.60;99.90;-2.70;99797;;;;569309;252;24162;-79
2022/11/19 03:21:15;;;;;;;14.97;12.97;;;-1.70;99.90;-2.70;99795;;;;559887;252;24228;-80
2022/11/19 03:23:43;;;;;;;14.80;12.60;;;-1.70;99.90;-2.80;99801;;;;558556;255;24219;-80
2022/11/19 03:26:32;;;;;;;14.67;13.07;;;-1.70;99.90;-2.70;99802;;;;548424;257;25236;-79
2022/11/19 03:29:00;;;;;;;16.43;12.47;;;-1.70;99.90;-2.80;99790;;;;548828;257;24265;-79
2022/11/19 03:31:29;;;;;;;12.70;11.30;;;-1.70;99.90;-2.80;99793;;;;558236;257;24125;-79
2022/11/19 03:33:58;;;;;;;12.77;11.07;;;-1.70;99.90;-2.80;99793;;;;558683;257;24162;-80
2022/11/19 03:36:35;;;;;;;14.20;10.60;;;-1.80;99.90;-2.80;99796;;;;560420;252;24147;-80
2022/11/19 03:39:03;;;;;;;11.40;9.97;;;-1.80;99.90;-2.80;99789;;;;550308;257;24170;-80
2022/11/19 03:41:31;;;;;;;12.30;9.93;;;-1.80;99.90;-2.90;99789;;;;568529;250;24254;-79
2022/11/19 03:44:05;;;;;;;11.00;8.67;;;-1.80;99.90;-2.90;99785;;;;560487;252;24175;-81
2022/11/19 03:46:33;;;;;;;10.77;8.87;;;-1.80;99.90;-2.90;99789;;;;559167;252;24168;-80
2022/11/19 03:49:01;;;;;;;11.93;8.53;;;-1.80;99.90;-2.90;99787;;;;550839;256;24167;-79
2022/11/19 03:51:41;;;;;;;12.10;8.63;;;-1.90;99.90;-2.90;99787;;;;569337;250;24156;-80
2022/11/19 03:54:11;;;;;;;9.97;8.80;;;-1.90;99.90;-2.90;99787;;;;564931;246;24126;-78
2022/11/19 03:56:39;;;;;;;10.17;8.70;;;-1.90;99.90;-2.90;99785;;;;580712;240;24106;-78
2022/11/19 03:59:07;;;;;;;11.50;9.50;;;-1.90;99.90;-3.00;99790;;;;576205;245;24053;-79
2022/11/19 04:01:36;;;;;;;11.50;9.03;;;-1.90;99.90;-3.00;99785;;;;575605;245;24108;-80
2022/11/19 04:06:48;;;;;;;11.83;7.90;;;-2.00;99.90;-3.00;99788;;;;575775;245;24060;-78
2022/11/19 04:09:16;;;;;;;11.90;9.83;;;-1.90;99.90;-3.00;99790;;;;586836;241;24076;-80
2022/11/19 04:11:44;;;;;;;13.57;9.83;;;-1.90;99.90;-3.00;99780;;;;576319;245;24056;-80
2022/11/19 04:14:13;;;;;;;13.40;10.57;;;-1.90;99.90;-3.00;99784;;;;561659;252;24150;-80
2022/11/19 04:16:41;;;;;;;12.97;10.30;;;-1.90;99.90;-3.00;99783;;;;576682;249;24142;-78
2022/11/19 04:19:09;;;;;;;14.63;10.83;;;-1.90;99.90;-3.00;99785;;;;568003;249;24102;-78
2022/11/19 04:21:37;;;;;;;12.90;9.17;;;-1.90;99.90;-3.00;99786;;;;568002;249;24055;-80
2022/11/19 04:24:05;;;;;;;13.83;10.97;;;-1.90;99.90;-3.00;99787;;;;576573;248;24087;-78
2022/11/19 04:26:33;;;;;;;16.30;11.53;;;-1.90;99.90;-3.00;99781;;;;567898;249;24115;-79
2022/11/19 04:29:01;;;;;;;13.47;10.90;;;-2.00;99.90;-3.00;99782;;;;567910;249;24129;-79
2022/11/19 04:31:30;;;;;;;14.57;11.20;;;-1.90;99.90;-3.00;99779;;;;567875;249;24075;-79
2022/11/19 04:33:59;;;;;;;19.90;13.97;;;-1.90;99.90;-3.00;99790;;;;567556;249;24072;-80
2022/11/19 04:36:27;;;;;;;14.70;11.87;;;-2.00;99.90;-3.00;99782;;;;567568;249;24067;-80
2022/11/19 04:38:55;;;;;;;14.30;11.10;;;-2.00;99.90;-3.00;99773;;;;567513;249;24171;-79
2022/11/19 04:41:23;;;;;;;17.70;14.90;;;-1.90;99.90;-3.00;99779;;;;562583;249;35374;-79
2022/11/19 04:43:50;;;;;;;14.13;10.73;;;-1.90;99.90;-3.00;99774;;;;567583;249;24080;-79
2022/11/19 04:46:21;;;;;;;15.13;11.87;;;-2.00;99.90;-3.10;99770;;;;567511;249;24088;-79
2022/11/19 04:48:46;;;;;;;13.87;12.23;;;-2.00;99.90;-3.10;99761;;;;573777;250;24113;-79
2022/11/19 04:51:14;;;;;;;13.90;12.03;;;-2.00;99.90;-3.10;99766;;;;573662;249;24127;-80
2022/11/19 04:53:42;;;;;;;15.13;11.90;;;-2.10;99.90;-3.20;99768;;;;573508;249;24136;-79
2022/11/19 04:56:10;;;;;;;15.10;12.93;;;-2.10;99.90;-3.20;99777;;;;568460;249;35351;-80
2022/11/19 04:58:41;;;;;;;12.63;9.90;;;-2.20;99.90;-3.30;99771;;;;573635;249;24083;-79
2022/11/19 05:01:07;;;;;;;14.13;11.93;;;-2.20;99.90;-3.30;99763;;;;574862;246;24061;-79
2022/11/19 05:03:35;;;;;;;14.13;10.77;;;-2.20;99.90;-3.30;99761;;;;575252;246;24091;-79
2022/11/19 05:06:07;;;;;;;15.43;10.83;;;-2.20;99.90;-3.30;99769;;;;565038;250;25157;-78
2022/11/19 05:08:33;;;;;;;14.40;10.87;;;-2.20;99.90;-3.30;99772;;;;560503;250;24105;-78
2022/11/19 05:11:01;;;;;;;12.87;10.90;;;-2.20;99.90;-3.30;99766;;;;568097;250;24213;-78
2022/11/19 05:13:29;;;;;;;14.17;10.57;;;-2.20;99.90;-3.30;99766;;;;567646;250;24133;-78
2022/11/19 05:15:57;;;;;;;12.50;10.57;;;-2.20;99.90;-3.30;99762;;;;567474;247;24094;-79
2022/11/19 05:18:25;;;;;;;13.75;11.73;;;-2.20;99.90;-3.30;99764;;;;562095;250;35297;-78
2022/11/19 05:20:53;;;;;;;11.83;9.57;;;-2.20;99.90;-3.30;99769;;;;567212;247;24138;-79
2022/11/19 05:23:21;;;;;;;13.27;10.53;;;-2.20;99.90;-3.30;99775;;;;565088;250;24075;-79
2022/11/19 05:25:49;;;;;;;10.37;9.27;;;-2.20;99.90;-3.30;99765;;;;575759;246;24065;-80
2022/11/19 05:28:20;;;;;;;12.77;9.03;;;-2.20;99.90;-3.30;99763;;;;564883;250;24139;-80
2022/11/19 05:30:45;;;;;;;9.60;8.60;;;-2.20;99.90;-3.30;99767;;;;564859;250;24091;-79
2022/11/19 05:33:13;;;;;;;11.07;8.53;;;-2.20;99.90;-3.30;99767;;;;575546;245;24122;-78
2022/11/19 05:35:41;;;;;;;11.87;8.63;;;-2.20;99.90;-3.30;99769;;;;584329;244;24098;-79
2022/11/19 05:38:09;;;;;;;11.93;8.77;;;-2.30;99.90;-3.30;99759;;;;584404;244;24253;-79
2022/11/19 05:40:37;;;;;;;11.93;9.63;;;-2.30;99.90;-3.30;99760;;;;584365;244;24178;-79
2022/11/19 05:43:05;;;;;;;11.77;9.33;;;-2.30;99.90;-3.30;99759;;;;584278;244;24131;-79
2022/11/19 05:45:33;;;;;;;12.57;9.50;;;-2.30;99.90;-3.30;99764;;;;584123;245;24096;-79
2022/11/19 05:48:01;;;;;;;12.27;10.10;;;-2.30;99.90;-3.30;99766;;;;584043;245;24055;-80
2022/11/19 05:50:29;;;;;;;13.07;10.23;;;-2.20;99.90;-3.30;99776;;;;575357;246;24085;-80
2022/11/19 05:53:01;;;;;;;15.30;11.77;;;-2.30;99.90;-3.30;99781;;;;579737;246;24078;-80
2022/11/19 05:55:25;;;;;;;16.73;12.67;;;-2.20;99.90;-3.30;99778;;;;575094;246;24063;-79
2022/11/19 05:57:53;;;;;;;14.13;11.07;;;-2.20;99.90;-3.30;99776;;;;575311;246;24104;-79
2022/11/19 06:00:20;;;;;;;21.63;14.60;;;-2.20;99.90;-3.30;99783;;;;575190;246;24123;-80
2022/11/19 06:02:48;;;;;;;19.23;13.70;;;-2.20;99.90;-3.20;99780;;;;575283;246;24085;-79
2022/11/19 06:05:16;;;;;;;20.57;14.77;;;-2.20;99.90;-3.20;99787;;;;575191;246;24085;-79
2022/11/19 06:07:44;;;;;;;22.70;15.93;;;-2.20;99.90;-3.20;99788;;;;575444;246;24115;-79
2022/11/19 06:10:12;;;;;;;20.10;13.97;;;-2.10;99.90;-3.20;99778;;;;575361;246;24061;-79
2022/11/19 06:12:40;;;;;;;25.63;18.57;;;-2.10;99.90;-3.20;99787;;;;575757;246;24110;-80
2022/11/19 06:15:08;;;;;;;24.23;16.37;;;-2.10;99.90;-3.20;99779;;;;575335;246;24082;-79
2022/11/19 06:17:37;;;;;;;25.80;18.03;;;-2.10;99.90;-3.10;99780;;;;575276;246;24109;-79
2022/11/19 06:20:07;;;;;;;25.37;17.03;;;-2.10;99.90;-3.10;99775;;;;574655;245;24097;-80
2022/11/19 06:22:33;;;;;;;23.93;15.57;;;-2.10;99.90;-3.10;99775;;;;576228;245;24072;-79
2022/11/19 06:25:04;;;;;;;29.33;19.63;;;-2.00;99.90;-3.00;99779;;;;576199;245;24073;-79
2022/11/19 06:27:29;;;;;;;28.83;18.00;;;-2.00;99.90;-3.00;99783;;;;580417;245;24102;-79
2022/11/19 06:29:57;;;;;;;24.20;17.03;;;-2.00;99.90;-3.00;99781;;;;575682;245;25160;-81
2022/11/19 06:32:26;;;;;;;27.83;19.73;;;-2.00;99.90;-3.00;99779;;;;575824;245;24071;-79
2022/11/19 06:34:55;;;;;;;24.60;17.63;;;-2.00;99.90;-3.10;99779;;;;575825;245;24108;-80
2022/11/19 06:37:23;;;;;;;27.73;20.43;;;-2.00;99.90;-3.00;99781;;;;570820;245;35207;-81
2022/11/19 06:39:51;;;;;;;26.50;16.63;;;-2.00;99.90;-3.00;99782;;;;575537;245;24060;-81
2022/11/19 06:42:37;;;;;;;28.37;20.20;;;-2.00;99.90;-3.00;99783;;;;575445;245;24112;-80
2022/11/19 06:45:14;;;;;;;24.63;17.63;;;-2.00;99.90;-3.00;99793;;;;575491;245;24039;-81
2022/11/19 06:47:42;;;;;;;27.67;21.27;;;-2.00;99.90;-3.00;99789;;;;570741;245;35212;-81
2022/11/19 06:50:10;;;;;;;26.50;16.87;;;-1.90;99.90;-3.00;99786;;;;584031;245;25099;-80
2022/11/19 06:52:38;;;;;;;24.77;18.10;;;-1.90;99.90;-3.00;99781;;;;584512;244;24191;-81
2022/11/19 06:55:06;;;;;;;26.20;17.43;;;-1.90;99.90;-3.00;99778;;;;579994;246;24199;-81
2022/11/19 06:57:35;;;;;;;24.73;18.27;;;-1.90;99.90;-2.90;99785;;;;575233;246;24084;-80
2022/11/19 07:00:04;;;;;;;26.97;18.80;;;-1.80;99.90;-2.90;99781;;;;575335;246;24085;-83
2022/11/19 07:02:32;;;;;;;23.93;17.53;;;-1.90;99.90;-2.90;99778;;;;575087;246;24078;-79
2022/11/19 07:05:00;;;;;;;27.80;18.87;;;-1.80;99.90;-2.90;99781;;;;575361;246;24074;-81
2022/11/19 07:07:27;;;;;;;21.73;17.03;;;-1.80;99.90;-2.90;99782;;;;575266;246;24070;-80
2022/11/19 07:09:55;;;;;;;23.17;16.63;;;-1.80;99.90;-2.90;99784;;;;575382;246;24129;-80
2022/11/19 07:12:23;;;;;;;24.23;17.60;;;-1.80;99.90;-2.90;99790;;;;575283;246;24087;-81
2022/11/19 07:14:51;;;;;;;24.47;17.43;;;-1.80;99.90;-2.90;99786;;;;575607;246;24077;-80
2022/11/19 07:17:19;;;;;;;23.10;15.60;;;-1.80;99.90;-2.90;99783;;;;575630;246;24072;-80
2022/11/19 07:19:47;;;;;;;25.90;17.40;;;-1.80;99.90;-2.90;99782;;;;575542;246;24072;-79
2022/11/19 07:22:15;;;;;;;24.30;16.80;;;-1.80;99.90;-2.80;99791;;;;575642;246;24102;-80
2022/11/19 07:24:43;;;;;;;23.47;16.60;;;-1.80;99.90;-2.80;99793;;;;575653;246;24145;-80
2022/11/19 07:27:11;;;;;;;25.93;17.80;;;-1.70;99.90;-2.80;99784;;;;575613;246;25146;-79
2022/11/19 07:29:39;;;;;;;27.10;18.13;;;-1.70;99.90;-2.70;99792;;;;575663;246;24105;-80
2022/11/19 07:32:07;;;;;;;20.53;16.43;;;-1.70;99.90;-2.70;99783;;;;576928;245;24103;-80
2022/11/19 07:34:35;;;;;;;25.40;18.30;;;-1.70;99.90;-2.60;99788;;;;576758;245;24119;-80
2022/11/19 07:37:02;;;;;;;23.77;17.40;;;-1.60;99.90;-2.60;99787;;;;576454;245;24047;-80
2022/11/19 07:39:30;;;;;;;22.73;15.07;;;-1.50;99.90;-2.60;99798;;;;576404;245;24078;-80
2022/11/19 07:44:44;;;;;;;25.17;16.70;;;-1.50;99.90;-2.50;99794;;;;580809;245;24056;-82
2022/11/19 07:47:12;;;;;;;23.67;16.77;;;-1.50;99.90;-2.50;99796;;;;576204;245;24054;-81
2022/11/19 07:49:40;;;;;;;21.83;14.20;;;-1.40;99.90;-2.50;99792;;;;575989;245;24126;-80
2022/11/19 07:52:08;;;;;;;24.40;16.47;;;-1.40;99.90;-2.40;99798;;;;575859;245;24065;-79
2022/11/19 07:54:36;;;;;;;20.60;14.40;;;-1.30;99.90;-2.40;99800;;;;575851;245;24111;-81
2022/11/19 07:57:04;;;;;;;19.83;13.67;;;-1.30;99.90;-2.30;99792;;;;580254;245;24074;-80
2022/11/19 07:59:32;;;;;;;23.53;17.27;;;-1.30;99.90;-2.30;99795;;;;575482;245;24095;-80
2022/11/19 08:02:00;;;;;;;22.53;14.87;;;-1.10;99.90;-2.20;99791;;;;575629;245;24052;-80
2022/11/19 08:04:32;;;;;;;23.87;16.53;;;-1.10;99.90;-2.20;99797;;;;575667;245;24061;-80
2022/11/19 08:06:58;;;;;;;25.73;17.37;;;-1.10;99.90;-2.10;99800;;;;575276;246;25167;-80
2022/11/19 08:09:26;;;;;;;23.73;15.80;;;-1.00;99.90;-2.20;99797;;;;575246;246;24116;-80
2022/11/19 08:11:55;;;;;;;22.43;17.07;;;-1.00;99.90;-2.20;99803;;;;575158;246;24111;-81
2022/11/19 08:14:23;;;;;;;22.07;16.00;;;-1.10;99.90;-2.10;99800;;;;575289;246;24073;-82
2022/11/19 08:19:37;;;;;;;19.70;14.87;;;-1.10;99.90;-2.10;99799;;;;580284;246;24089;-81
2022/11/19 08:22:05;;;;;;;19.47;14.67;;;-1.00;99.90;-2.00;99799;;;;575221;246;24067;-80
2022/11/19 08:24:33;;;;;;;17.93;14.13;;;-1.00;99.90;-1.90;99798;;;;575325;246;24129;-81
2022/11/19 08:27:01;;;;;;;21.27;14.97;;;-0.90;99.90;-1.80;99796;;;;575160;246;24098;-81
2022/11/19 08:29:29;;;;;;;21.87;14.90;;;-0.80;99.90;-1.80;99800;;;;575095;246;24122;-80
2022/11/19 08:31:56;;;;;;;17.60;13.17;;;-0.70;99.90;-1.70;99805;;;;575350;246;24091;-80
2022/11/19 08:34:24;;;;;;;23.63;13.73;;;-0.60;99.90;-1.70;99803;;;;575199;246;24078;-80
2022/11/19 08:36:52;;;;;;;22.07;14.80;;;-0.60;99.90;-1.70;99807;;;;575328;246;24094;-81
2022/11/19 08:39:20;;;;;;;22.10;14.70;;;-0.60;99.90;-1.80;99801;;;;575217;246;24177;-78
2022/11/19 08:44:34;;;;;;;21.00;14.20;;;-0.70;99.90;-1.90;99798;;;;581271;245;24055;-79
2022/11/19 08:47:05;;;;;;;20.30;13.07;;;-0.80;99.90;-1.80;99800;;;;576396;245;24097;-79
2022/11/19 08:49:30;;;;;;;22.30;13.13;;;-0.80;99.90;-1.80;99794;;;;575777;245;24154;-79
2022/11/19 08:51:58;;;;;;;25.43;13.33;;;-0.70;99.90;-1.80;99803;;;;575900;245;24103;-80
2022/11/19 08:54:26;;;;;;;23.13;14.73;;;-0.70;99.90;-1.80;99800;;;;575837;245;25126;-80
2022/11/19 08:56:54;;;;;;;17.20;12.60;;;-0.70;99.90;-1.80;99797;;;;575749;245;24074;-80
2022/11/19 08:59:22;;;;;;;19.07;13.07;;;-0.70;99.90;-1.80;99795;;;;580337;245;24066;-80
2022/11/19 09:01:50;;;;;;;17.27;12.63;;;-0.70;99.90;-1.80;99795;;;;575550;245;24085;-80
2022/11/19 09:04:26;;;;;;;20.60;14.87;;;-0.70;99.90;-1.80;99803;;;;612009;228;34715;-81
2022/11/19 09:06:54;;;;;;;16.00;12.00;;;-0.70;99.90;-1.80;99806;;;;595805;236;24120;-82
2022/11/19 09:09:23;;;;;;;18.30;12.57;;;-0.70;99.90;-1.80;99806;;;;595483;237;24069;-81
2022/11/19 09:11:51;;;;;;;19.33;12.77;;;-0.70;99.90;-1.70;99803;;;;595453;237;24033;-81
2022/11/19 09:14:18;;;;;;;17.23;12.97;;;-0.60;99.90;-1.70;99801;;;;586188;241;25128;-82
2022/11/19 09:16:46;;;;;;;18.47;12.70;;;-0.60;99.90;-1.60;99794;;;;584351;241;24101;-80
2022/11/19 09:19:14;;;;;;;18.93;13.20;;;-0.50;99.90;-1.50;99808;;;;584392;241;24072;-81
2022/11/19 09:21:42;;;;;;;21.30;13.57;;;-0.40;99.90;-1.40;99802;;;;584067;241;24126;-81
2022/11/19 09:24:10;;;;;;;20.53;13.33;;;-0.30;99.90;-1.40;99801;;;;584117;241;24119;-78
2022/11/19 09:26:42;;;;;;;18.10;12.57;;;-0.30;99.90;-1.30;99798;;;;584145;241;24053;-79
2022/11/19 09:29:06;;;;;;;18.50;12.53;;;-0.20;99.90;-1.10;99806;;;;583806;241;24061;-80
2022/11/19 09:31:34;;;;;;;20.20;12.03;;;-0.10;99.90;-1.00;99808;;;;584153;241;24042;-81
2022/11/19 09:34:02;;;;;;;16.77;12.07;;;0.10;99.90;-0.80;99804;;;;584133;241;24092;-81
2022/11/19 09:36:30;;;;;;;13.33;10.47;;;0.20;99.90;-0.70;99809;;;;583986;241;24096;-80
2022/11/19 09:39:00;;;;;;;21.03;13.10;;;0.50;99.90;-0.60;99810;;;;583975;241;24064;-81
2022/11/19 09:41:52;;;;;;;15.60;11.27;;;0.60;99.90;-0.60;99806;;;;583842;241;24045;-80
2022/11/19 09:44:57;;;;;;;16.77;13.17;;;0.70;99.90;-0.40;99803;;;;583606;241;24092;-79
2022/11/19 09:47:52;;;;;;;18.70;12.67;;;0.70;99.90;-0.40;99813;;;;583818;241;24096;-79
2022/11/19 09:50:23;;;;;;;18.20;12.17;;;0.80;99.90;-0.40;99806;;;;583450;241;24085;-82
2022/11/19 09:53:08;;;;;;;18.07;13.70;;;0.70;99.90;-0.60;99804;;;;583902;241;24136;-80
2022/11/19 09:55:36;;;;;;;14.20;11.13;;;0.60;99.90;-0.60;99805;;;;583068;241;24117;-80
2022/11/19 09:58:04;;;;;;;19.17;13.10;;;0.60;99.90;-0.50;99789;;;;583888;241;24055;-81
2022/11/19 10:00:32;;;;;;;15.57;12.40;;;0.60;99.90;-0.40;99802;;;;583047;241;24124;-80
2022/11/19 10:03:04;;;;;;;14.13;11.23;;;0.80;99.90;-0.20;99799;;;;582642;241;24093;-81
2022/11/19 10:05:44;;;;;;;16.27;12.87;;;1.10;99.90;0.10;99806;;;;582908;241;24115;-83
2022/11/19 10:08:29;;;;;;;17.03;13.07;;;1.00;99.90;-0.10;99801;;;;583187;241;24075;-81
2022/11/19 10:11:30;;;;;;;21.23;12.40;;;1.00;99.90;0.00;99805;;;;583788;241;24104;-81
2022/11/19 10:14:28;;;;;;;16.27;12.17;;;1.00;99.90;0.00;99803;;;;584000;241;24160;-82
2022/11/19 10:17:36;;;;;;;16.93;12.03;;;1.10;99.90;0.20;99799;;;;585061;241;24075;-81
2022/11/19 10:20:12;;;;;;;23.50;13.73;;;1.30;99.90;0.30;99792;;;;584604;241;24074;-82
2022/11/19 10:22:49;;;;;;;18.33;12.43;;;1.40;99.90;0.40;99798;;;;593538;241;24105;-83
2022/11/19 10:25:16;;;;;;;17.57;13.07;;;1.50;99.90;0.20;99788;;;;584266;241;24052;-84
2022/11/19 10:27:54;;;;;;;15.37;12.43;;;1.40;99.90;0.10;99788;;;;583622;241;24142;-81
2022/11/19 10:30:22;;;;;;;18.70;13.33;;;1.30;99.90;0.10;99797;;;;583100;241;25127;-85
2022/11/19 10:32:59;;;;;;;17.23;13.30;;;1.20;99.90;-0.10;99795;;;;583422;241;24088;-82
2022/11/19 10:35:33;;;;;;;17.37;13.60;;;1.10;99.90;-0.20;99786;;;;584094;241;24120;-84
2022/11/19 10:38:00;;;;;;;16.33;12.83;;;1.00;99.90;-0.30;99778;;;;580873;241;24119;-86
2022/11/19 10:40:28;;;;;;;16.77;13.53;;;0.90;99.90;-0.50;99784;;;;582551;241;24133;-87
2022/11/19 10:43:14;;;;;;;23.60;15.50;;;0.70;99.90;-0.50;99784;;;;583763;241;24121;-82
2022/11/19 10:45:42;;;;;;;24.13;16.03;;;0.60;99.90;-0.60;99782;;;;581980;241;24092;-82
2022/11/19 10:48:22;;;;;;;20.03;14.67;;;0.50;99.90;-0.80;99787;;;;584169;241;24093;-83
2022/11/19 10:50:57;;;;;;;21.20;16.43;;;0.30;99.90;-1.00;99787;;;;584035;242;24101;-83
2022/11/19 10:53:25;;;;;;;21.00;15.73;;;0.20;99.90;-1.10;99788;;;;561437;251;25243;-82
2022/11/19 10:55:55;;;;;;;21.90;15.37;;;0.00;99.90;-1.10;99784;;;;565863;250;24086;-83
2022/11/19 10:58:29;;;;;;;23.87;15.90;;;0.00;99.90;-1.10;99778;;;;574495;247;24135;-83
2022/11/19 11:00:57;;;;;;;24.37;17.07;;;-0.10;99.90;-1.20;99775;;;;565758;249;24101;-82
2022/11/19 11:03:33;;;;;;;22.03;16.13;;;-0.10;99.90;-1.10;99779;;;;565424;249;24103;-83
2022/11/19 11:06:08;;;;;;;25.10;17.00;;;-0.10;99.90;-1.10;99766;;;;561100;250;24200;-83
2022/11/19 11:08:49;;;;;;;26.53;17.63;;;-0.10;99.90;-1.10;99767;;;;573912;250;24105;-83
2022/11/19 11:14:50;;;;;;;23.07;16.73;;;0.00;99.90;-1.10;99768;;;;565379;250;24094;-81
2022/11/19 11:16:46;;;;;;;25.43;17.27;;;-0.10;99.90;-1.10;99775;;;;567250;251;24147;-81
2022/11/19 11:19:16;;;;;;;20.47;17.07;;;-0.10;99.90;-1.10;99776;;;;572266;246;24144;-80
2022/11/19 11:21:48;;;;;;;23.60;17.23;;;0.00;99.90;-1.10;99770;;;;570161;251;24134;-81
2022/11/19 11:24:12;;;;;;;23.70;17.67;;;-0.10;99.90;-1.10;99773;;;;565266;249;24129;-82
2022/11/19 11:26:44;;;;;;;20.67;15.67;;;-0.10;99.90;-1.10;99768;;;;566823;249;24077;-80
2022/11/19 11:29:17;;;;;;;23.87;17.07;;;-0.10;99.90;-1.10;99777;;;;566596;249;24089;-82
2022/11/19 11:31:48;;;;;;;23.57;17.37;;;0.00;99.90;-1.10;99777;;;;566820;249;25138;-81
2022/11/19 11:34:25;;;;;;;23.30;16.60;;;0.00;99.90;-1.00;99765;;;;562984;249;24123;-81
2022/11/19 11:36:53;;;;;;;24.20;16.43;;;0.00;99.90;-0.90;99770;;;;566272;247;24147;-80
2022/11/19 11:39:25;;;;;;;21.47;17.13;;;0.10;99.90;-1.00;99769;;;;566171;249;24122;-81
2022/11/19 11:41:56;;;;;;;20.47;15.93;;;0.10;99.90;-0.90;99772;;;;565954;249;24123;-82
2022/11/19 11:44:24;;;;;;;23.15;18.17;;;0.10;99.90;-0.90;99785;;;;569312;249;35426;-81
2022/11/19 11:46:55;;;;;;;14.83;12.30;;;0.10;99.90;-1.00;99777;;;;565968;249;24097;-81
2022/11/19 11:49:33;;;;;;;20.90;16.03;;;0.10;99.90;-1.10;99777;;;;574756;247;24198;-81
2022/11/19 11:52:19;;;;;;;22.90;16.97;;;-0.10;99.90;-1.20;99780;;;;566309;247;24067;-82
2022/11/19 11:54:59;;;;;;;19.43;16.07;;;-0.10;99.90;-1.20;99764;;;;565779;249;24082;-83